sensor_id;sensor_type;location;lat;lon;timestamp;temperature;humidity
2042;DHT22;1026;51.460;7.252;2023-03-23T00:00:47;12.10;94.20
2042;DHT22;1026;51.460;7.252;2023-03-23T00:03:13;12.20;94.20
2042;DHT22;1026;51.460;7.252;2023-03-23T00:05:39;12.10;94.20
2042;DHT22;1026;51.460;7.252;2023-03-23T00:08:07;12.20;94.20
2042;DHT22;1026;51.460;7.252;2023-03-23T00:10:35;12.10;94.20
2042;DHT22;1026;51.460;7.252;2023-03-23T00:13:01;12.10;94.20
2042;DHT22;1026;51.460;7.252;2023-03-23T00:15:28;12.10;94.20
2042;DHT22;1026;51.460;7.252;2023-03-23T00:17:59;12.10;94.30
2042;DHT22;1026;51.460;7.252;2023-03-23T00:20:33;12.10;94.30
2042;DHT22;1026;51.460;7.252;2023-03-23T00:23:06;12.10;94.30
2042;DHT22;1026;51.460;7.252;2023-03-23T00:25:33;12.10;94.30
2042;DHT22;1026;51.460;7.252;2023-03-23T00:27:58;12.10;94.30
2042;DHT22;1026;51.460;7.252;2023-03-23T00:30:24;12.10;94.30
2042;DHT22;1026;51.460;7.252;2023-03-23T00:32:50;12.10;94.30
2042;DHT22;1026;51.460;7.252;2023-03-23T00:35:16;12.10;94.70
2042;DHT22;1026;51.460;7.252;2023-03-23T00:37:43;12.10;94.40
2042;DHT22;1026;51.460;7.252;2023-03-23T00:40:09;12.10;94.30
2042;DHT22;1026;51.460;7.252;2023-03-23T00:42:36;12.00;94.40
2042;DHT22;1026;51.460;7.252;2023-03-23T00:45:04;12.10;94.40
2042;DHT22;1026;51.460;7.252;2023-03-23T00:47:36;12.10;94.40
2042;DHT22;1026;51.460;7.252;2023-03-23T00:50:03;12.00;94.40
2042;DHT22;1026;51.460;7.252;2023-03-23T00:52:28;12.10;94.40
2042;DHT22;1026;51.460;7.252;2023-03-23T00:54:54;12.10;94.40
2042;DHT22;1026;51.460;7.252;2023-03-23T00:57:20;12.00;94.30
2042;DHT22;1026;51.460;7.252;2023-03-23T00:59:50;12.00;94.40
2042;DHT22;1026;51.460;7.252;2023-03-23T01:02:16;12.00;94.40
2042;DHT22;1026;51.460;7.252;2023-03-23T01:04:42;12.00;94.50
2042;DHT22;1026;51.460;7.252;2023-03-23T01:07:10;12.00;94.40
2042;DHT22;1026;51.460;7.252;2023-03-23T01:09:38;12.00;94.50
2042;DHT22;1026;51.460;7.252;2023-03-23T01:12:05;12.00;94.40
2042;DHT22;1026;51.460;7.252;2023-03-23T01:14:31;12.00;94.40
2042;DHT22;1026;51.460;7.252;2023-03-23T01:16:57;12.00;94.50
2042;DHT22;1026;51.460;7.252;2023-03-23T01:19:22;12.00;94.50
2042;DHT22;1026;51.460;7.252;2023-03-23T01:21:48;12.00;94.50
2042;DHT22;1026;51.460;7.252;2023-03-23T01:24:14;12.00;94.50
2042;DHT22;1026;51.460;7.252;2023-03-23T01:26:39;12.00;94.50
2042;DHT22;1026;51.460;7.252;2023-03-23T01:29:05;11.90;94.50
2042;DHT22;1026;51.460;7.252;2023-03-23T01:31:31;12.00;94.50
2042;DHT22;1026;51.460;7.252;2023-03-23T01:33:56;12.00;94.60
2042;DHT22;1026;51.460;7.252;2023-03-23T01:36:24;12.00;94.60
2042;DHT22;1026;51.460;7.252;2023-03-23T01:38:52;12.00;94.60
2042;DHT22;1026;51.460;7.252;2023-03-23T01:41:20;12.00;94.70
2042;DHT22;1026;51.460;7.252;2023-03-23T01:43:59;11.90;94.60
2042;DHT22;1026;51.460;7.252;2023-03-23T01:46:29;12.00;94.80
2042;DHT22;1026;51.460;7.252;2023-03-23T01:48:57;11.90;94.60
2042;DHT22;1026;51.460;7.252;2023-03-23T01:51:26;11.90;94.70
2042;DHT22;1026;51.460;7.252;2023-03-23T01:53:56;11.90;94.60
2042;DHT22;1026;51.460;7.252;2023-03-23T01:56:26;11.90;94.80
2042;DHT22;1026;51.460;7.252;2023-03-23T01:58:55;11.90;94.70
2042;DHT22;1026;51.460;7.252;2023-03-23T02:01:21;11.90;94.70
2042;DHT22;1026;51.460;7.252;2023-03-23T02:03:52;11.90;94.70
2042;DHT22;1026;51.460;7.252;2023-03-23T02:06:24;11.90;94.80
2042;DHT22;1026;51.460;7.252;2023-03-23T02:08:51;11.90;94.80
2042;DHT22;1026;51.460;7.252;2023-03-23T02:11:19;11.90;94.80
2042;DHT22;1026;51.460;7.252;2023-03-23T02:13:46;11.80;94.80
2042;DHT22;1026;51.460;7.252;2023-03-23T02:16:17;11.90;94.80
2042;DHT22;1026;51.460;7.252;2023-03-23T02:35:22;11.90;95.00
2042;DHT22;1026;51.460;7.252;2023-03-23T02:37:52;11.90;94.90
2042;DHT22;1026;51.460;7.252;2023-03-23T02:40:24;11.80;94.90
2042;DHT22;1026;51.460;7.252;2023-03-23T02:42:54;11.80;94.90
2042;DHT22;1026;51.460;7.252;2023-03-23T02:45:22;11.80;94.90
2042;DHT22;1026;51.460;7.252;2023-03-23T02:47:51;11.80;95.00
2042;DHT22;1026;51.460;7.252;2023-03-23T02:50:20;11.80;95.10
2042;DHT22;1026;51.460;7.252;2023-03-23T02:52:48;11.80;95.10
2042;DHT22;1026;51.460;7.252;2023-03-23T02:55:16;11.80;95.00
2042;DHT22;1026;51.460;7.252;2023-03-23T02:57:45;11.80;95.00
2042;DHT22;1026;51.460;7.252;2023-03-23T03:00:14;11.80;95.00
2042;DHT22;1026;51.460;7.252;2023-03-23T03:02:43;11.80;95.00
2042;DHT22;1026;51.460;7.252;2023-03-23T03:07:56;11.80;95.00
2042;DHT22;1026;51.460;7.252;2023-03-23T03:13:00;11.80;95.00
2042;DHT22;1026;51.460;7.252;2023-03-23T03:20:45;11.80;95.10
2042;DHT22;1026;51.460;7.252;2023-03-23T03:23:14;11.80;95.00
2042;DHT22;1026;51.460;7.252;2023-03-23T03:25:41;11.80;95.10
2042;DHT22;1026;51.460;7.252;2023-03-23T03:28:14;11.80;95.00
2042;DHT22;1026;51.460;7.252;2023-03-23T03:30:42;11.80;95.10
2042;DHT22;1026;51.460;7.252;2023-03-23T03:33:10;11.80;95.10
2042;DHT22;1026;51.460;7.252;2023-03-23T03:35:37;11.80;95.00
2042;DHT22;1026;51.460;7.252;2023-03-23T03:38:07;11.80;95.20
2042;DHT22;1026;51.460;7.252;2023-03-23T03:40:34;11.70;95.00
2042;DHT22;1026;51.460;7.252;2023-03-23T03:42:59;11.70;95.10
2042;DHT22;1026;51.460;7.252;2023-03-23T03:45:25;11.70;95.00
2042;DHT22;1026;51.460;7.252;2023-03-23T03:47:51;11.70;95.00
2042;DHT22;1026;51.460;7.252;2023-03-23T03:50:16;11.70;95.10
2042;DHT22;1026;51.460;7.252;2023-03-23T03:52:42;11.70;95.10
2042;DHT22;1026;51.460;7.252;2023-03-23T03:55:10;11.70;95.10
2042;DHT22;1026;51.460;7.252;2023-03-23T03:57:36;11.70;95.10
2042;DHT22;1026;51.460;7.252;2023-03-23T04:00:04;11.70;95.10
2042;DHT22;1026;51.460;7.252;2023-03-23T04:02:41;11.70;95.10
2042;DHT22;1026;51.460;7.252;2023-03-23T04:05:08;11.70;95.10
2042;DHT22;1026;51.460;7.252;2023-03-23T04:07:35;11.70;95.10
2042;DHT22;1026;51.460;7.252;2023-03-23T04:10:05;11.70;95.10
2042;DHT22;1026;51.460;7.252;2023-03-23T04:12:31;11.70;95.20
2042;DHT22;1026;51.460;7.252;2023-03-23T04:14:57;11.70;95.10
2042;DHT22;1026;51.460;7.252;2023-03-23T04:17:23;11.70;95.10
2042;DHT22;1026;51.460;7.252;2023-03-23T04:19:51;11.70;95.20
2042;DHT22;1026;51.460;7.252;2023-03-23T04:22:18;11.60;95.10
2042;DHT22;1026;51.460;7.252;2023-03-23T04:24:44;11.70;95.20
2042;DHT22;1026;51.460;7.252;2023-03-23T04:27:09;11.70;95.20
2042;DHT22;1026;51.460;7.252;2023-03-23T04:29:38;11.70;95.20
2042;DHT22;1026;51.460;7.252;2023-03-23T04:32:04;11.50;95.10
2042;DHT22;1026;51.460;7.252;2023-03-23T04:34:31;11.70;95.20
2042;DHT22;1026;51.460;7.252;2023-03-23T04:36:59;11.70;95.20
2042;DHT22;1026;51.460;7.252;2023-03-23T04:39:24;11.70;95.20
2042;DHT22;1026;51.460;7.252;2023-03-23T04:41:54;11.60;95.20
2042;DHT22;1026;51.460;7.252;2023-03-23T04:44:19;11.70;95.20
2042;DHT22;1026;51.460;7.252;2023-03-23T04:46:46;11.60;95.20
2042;DHT22;1026;51.460;7.252;2023-03-23T04:49:16;11.70;95.20
2042;DHT22;1026;51.460;7.252;2023-03-23T04:51:47;11.70;95.20
2042;DHT22;1026;51.460;7.252;2023-03-23T04:54:12;11.60;95.20
2042;DHT22;1026;51.460;7.252;2023-03-23T04:56:38;11.70;95.30
2042;DHT22;1026;51.460;7.252;2023-03-23T04:59:04;11.70;95.20
2042;DHT22;1026;51.460;7.252;2023-03-23T05:01:31;11.60;95.30
2042;DHT22;1026;51.460;7.252;2023-03-23T05:03:59;11.60;95.20
2042;DHT22;1026;51.460;7.252;2023-03-23T05:06:25;11.60;95.20
2042;DHT22;1026;51.460;7.252;2023-03-23T05:08:51;11.60;95.30
2042;DHT22;1026;51.460;7.252;2023-03-23T05:11:17;11.60;95.20
2042;DHT22;1026;51.460;7.252;2023-03-23T05:13:42;11.60;95.20
2042;DHT22;1026;51.460;7.252;2023-03-23T05:16:15;11.60;95.20
2042;DHT22;1026;51.460;7.252;2023-03-23T05:18:48;11.60;95.30
2042;DHT22;1026;51.460;7.252;2023-03-23T05:21:13;11.60;95.30
2042;DHT22;1026;51.460;7.252;2023-03-23T05:23:40;11.60;95.30
2042;DHT22;1026;51.460;7.252;2023-03-23T05:26:06;11.60;95.30
2042;DHT22;1026;51.460;7.252;2023-03-23T05:28:32;11.60;95.30
2042;DHT22;1026;51.460;7.252;2023-03-23T05:30:57;11.60;95.30
2042;DHT22;1026;51.460;7.252;2023-03-23T05:33:23;11.60;95.30
2042;DHT22;1026;51.460;7.252;2023-03-23T05:35:49;11.60;95.30
2042;DHT22;1026;51.460;7.252;2023-03-23T05:38:16;11.60;95.30
2042;DHT22;1026;51.460;7.252;2023-03-23T05:40:41;11.60;95.30
2042;DHT22;1026;51.460;7.252;2023-03-23T05:43:08;11.50;95.30
2042;DHT22;1026;51.460;7.252;2023-03-23T05:45:34;11.60;95.30
2042;DHT22;1026;51.460;7.252;2023-03-23T05:48:00;11.50;95.30
2042;DHT22;1026;51.460;7.252;2023-03-23T05:50:26;11.60;95.30
2042;DHT22;1026;51.460;7.252;2023-03-23T05:52:54;11.60;95.40
2042;DHT22;1026;51.460;7.252;2023-03-23T05:55:19;11.60;95.40
2042;DHT22;1026;51.460;7.252;2023-03-23T05:57:45;11.60;95.40
2042;DHT22;1026;51.460;7.252;2023-03-23T06:00:12;11.60;95.30
2042;DHT22;1026;51.460;7.252;2023-03-23T06:02:47;11.50;95.30
2042;DHT22;1026;51.460;7.252;2023-03-23T06:05:14;11.60;95.40
2042;DHT22;1026;51.460;7.252;2023-03-23T06:07:41;11.60;95.40
2042;DHT22;1026;51.460;7.252;2023-03-23T06:10:07;11.60;95.30
2042;DHT22;1026;51.460;7.252;2023-03-23T06:12:35;11.60;95.40
2042;DHT22;1026;51.460;7.252;2023-03-23T06:15:00;11.60;95.30
2042;DHT22;1026;51.460;7.252;2023-03-23T06:17:26;11.60;95.40
2042;DHT22;1026;51.460;7.252;2023-03-23T06:19:52;11.60;95.40
2042;DHT22;1026;51.460;7.252;2023-03-23T06:22:18;11.60;95.40
2042;DHT22;1026;51.460;7.252;2023-03-23T06:24:44;11.50;95.30
2042;DHT22;1026;51.460;7.252;2023-03-23T06:27:10;11.50;95.30
2042;DHT22;1026;51.460;7.252;2023-03-23T06:29:36;11.40;95.30
2042;DHT22;1026;51.460;7.252;2023-03-23T06:32:04;11.50;95.40
2042;DHT22;1026;51.460;7.252;2023-03-23T06:34:31;11.50;95.40
2042;DHT22;1026;51.460;7.252;2023-03-23T06:36:57;11.50;95.30
2042;DHT22;1026;51.460;7.252;2023-03-23T06:39:24;11.50;95.40
2042;DHT22;1026;51.460;7.252;2023-03-23T06:41:50;11.50;95.40
2042;DHT22;1026;51.460;7.252;2023-03-23T06:44:16;11.50;95.40
2042;DHT22;1026;51.460;7.252;2023-03-23T06:46:42;11.50;95.40
2042;DHT22;1026;51.460;7.252;2023-03-23T06:49:08;11.50;95.40
2042;DHT22;1026;51.460;7.252;2023-03-23T06:51:35;11.50;95.40
2042;DHT22;1026;51.460;7.252;2023-03-23T06:54:02;11.50;95.40
2042;DHT22;1026;51.460;7.252;2023-03-23T06:56:28;11.50;95.40
2042;DHT22;1026;51.460;7.252;2023-03-23T06:58:55;11.60;95.40
2042;DHT22;1026;51.460;7.252;2023-03-23T07:01:21;11.50;95.40
2042;DHT22;1026;51.460;7.252;2023-03-23T07:03:47;11.50;95.40
2042;DHT22;1026;51.460;7.252;2023-03-23T07:06:14;11.50;95.40
2042;DHT22;1026;51.460;7.252;2023-03-23T07:08:40;11.60;95.50
2042;DHT22;1026;51.460;7.252;2023-03-23T07:11:06;11.60;95.40
2042;DHT22;1026;51.460;7.252;2023-03-23T07:13:32;11.50;95.40
2042;DHT22;1026;51.460;7.252;2023-03-23T07:15:58;11.60;95.40
2042;DHT22;1026;51.460;7.252;2023-03-23T07:18:24;11.60;95.40
2042;DHT22;1026;51.460;7.252;2023-03-23T07:20:51;11.60;95.40
2042;DHT22;1026;51.460;7.252;2023-03-23T07:23:17;11.60;95.40
2042;DHT22;1026;51.460;7.252;2023-03-23T07:25:44;11.60;95.40
2042;DHT22;1026;51.460;7.252;2023-03-23T07:28:11;11.60;95.40
2042;DHT22;1026;51.460;7.252;2023-03-23T07:30:37;11.60;95.40
2042;DHT22;1026;51.460;7.252;2023-03-23T07:33:05;11.60;95.40
2042;DHT22;1026;51.460;7.252;2023-03-23T07:35:31;11.60;95.50
2042;DHT22;1026;51.460;7.252;2023-03-23T07:37:57;11.50;95.40
2042;DHT22;1026;51.460;7.252;2023-03-23T07:40:22;11.60;95.40
2042;DHT22;1026;51.460;7.252;2023-03-23T07:42:53;11.60;95.40
2042;DHT22;1026;51.460;7.252;2023-03-23T07:45:19;11.60;95.40
2042;DHT22;1026;51.460;7.252;2023-03-23T07:47:45;11.60;95.40
2042;DHT22;1026;51.460;7.252;2023-03-23T07:50:11;11.60;95.40
2042;DHT22;1026;51.460;7.252;2023-03-23T07:52:38;11.60;95.40
2042;DHT22;1026;51.460;7.252;2023-03-23T07:55:07;11.60;95.40
2042;DHT22;1026;51.460;7.252;2023-03-23T07:57:34;11.60;95.40
2042;DHT22;1026;51.460;7.252;2023-03-23T08:00:00;11.60;95.40
2042;DHT22;1026;51.460;7.252;2023-03-23T08:02:28;11.60;95.40
2042;DHT22;1026;51.460;7.252;2023-03-23T08:04:56;11.60;95.40
2042;DHT22;1026;51.460;7.252;2023-03-23T08:07:22;11.60;95.30
2042;DHT22;1026;51.460;7.252;2023-03-23T08:09:48;11.70;95.40
2042;DHT22;1026;51.460;7.252;2023-03-23T08:12:14;11.70;95.40
2042;DHT22;1026;51.460;7.252;2023-03-23T08:14:39;11.70;95.40
2042;DHT22;1026;51.460;7.252;2023-03-23T08:17:07;11.70;95.40
2042;DHT22;1026;51.460;7.252;2023-03-23T08:19:34;11.70;95.40
2042;DHT22;1026;51.460;7.252;2023-03-23T08:22:03;11.70;95.40
2042;DHT22;1026;51.460;7.252;2023-03-23T08:24:29;11.70;95.40
2042;DHT22;1026;51.460;7.252;2023-03-23T08:26:55;11.70;95.30
2042;DHT22;1026;51.460;7.252;2023-03-23T08:29:20;11.70;95.30
2042;DHT22;1026;51.460;7.252;2023-03-23T08:31:46;11.60;95.30
2042;DHT22;1026;51.460;7.252;2023-03-23T08:34:12;11.70;95.30
2042;DHT22;1026;51.460;7.252;2023-03-23T08:36:38;11.70;95.30
2042;DHT22;1026;51.460;7.252;2023-03-23T08:39:04;11.70;95.30
2042;DHT22;1026;51.460;7.252;2023-03-23T08:41:31;11.70;95.60
2042;DHT22;1026;51.460;7.252;2023-03-23T08:43:57;11.70;95.20
2042;DHT22;1026;51.460;7.252;2023-03-23T08:46:22;11.70;95.20
2042;DHT22;1026;51.460;7.252;2023-03-23T08:48:48;11.70;95.20
2042;DHT22;1026;51.460;7.252;2023-03-23T08:51:14;11.70;95.20
2042;DHT22;1026;51.460;7.252;2023-03-23T08:53:40;11.70;95.20
2042;DHT22;1026;51.460;7.252;2023-03-23T08:56:10;11.80;95.20
2042;DHT22;1026;51.460;7.252;2023-03-23T08:58:37;11.80;95.20
2042;DHT22;1026;51.460;7.252;2023-03-23T09:01:04;11.80;95.20
2042;DHT22;1026;51.460;7.252;2023-03-23T09:03:33;11.80;95.20
2042;DHT22;1026;51.460;7.252;2023-03-23T09:06:01;11.80;95.20
2042;DHT22;1026;51.460;7.252;2023-03-23T09:08:28;11.80;95.20
2042;DHT22;1026;51.460;7.252;2023-03-23T09:10:59;11.80;95.20
2042;DHT22;1026;51.460;7.252;2023-03-23T09:13:24;11.80;95.10
2042;DHT22;1026;51.460;7.252;2023-03-23T09:15:50;11.80;95.10
2042;DHT22;1026;51.460;7.252;2023-03-23T09:18:17;11.80;95.10
2042;DHT22;1026;51.460;7.252;2023-03-23T09:20:44;11.90;95.10
2042;DHT22;1026;51.460;7.252;2023-03-23T09:23:10;11.90;95.00
2042;DHT22;1026;51.460;7.252;2023-03-23T09:25:36;11.90;95.00
2042;DHT22;1026;51.460;7.252;2023-03-23T09:28:02;11.90;94.90
2042;DHT22;1026;51.460;7.252;2023-03-23T09:30:30;11.90;95.00
2042;DHT22;1026;51.460;7.252;2023-03-23T09:32:57;11.90;94.90
2042;DHT22;1026;51.460;7.252;2023-03-23T09:35:24;11.90;94.90
2042;DHT22;1026;51.460;7.252;2023-03-23T09:37:51;11.90;94.90
2042;DHT22;1026;51.460;7.252;2023-03-23T09:40:21;11.90;95.00
2042;DHT22;1026;51.460;7.252;2023-03-23T09:43:13;11.90;94.90
2042;DHT22;1026;51.460;7.252;2023-03-23T09:46:05;12.00;95.00
2042;DHT22;1026;51.460;7.252;2023-03-23T09:54:14;12.00;94.80
2042;DHT22;1026;51.460;7.252;2023-03-23T09:56:55;12.00;94.80
2042;DHT22;1026;51.460;7.252;2023-03-23T09:59:35;12.00;94.70
2042;DHT22;1026;51.460;7.252;2023-03-23T10:02:12;12.10;94.80
2042;DHT22;1026;51.460;7.252;2023-03-23T10:04:51;12.10;94.70
2042;DHT22;1026;51.460;7.252;2023-03-23T10:07:25;12.10;94.70
2042;DHT22;1026;51.460;7.252;2023-03-23T10:10:00;12.10;94.70
2042;DHT22;1026;51.460;7.252;2023-03-23T10:12:31;12.10;94.70
2042;DHT22;1026;51.460;7.252;2023-03-23T10:17:48;12.10;94.70
2042;DHT22;1026;51.460;7.252;2023-03-23T10:20:32;12.10;94.80
2042;DHT22;1026;51.460;7.252;2023-03-23T10:25:52;12.10;94.80
2042;DHT22;1026;51.460;7.252;2023-03-23T10:28:20;12.10;94.90
2042;DHT22;1026;51.460;7.252;2023-03-23T10:30:51;12.00;94.90
2042;DHT22;1026;51.460;7.252;2023-03-23T10:38:27;12.10;95.10
2042;DHT22;1026;51.460;7.252;2023-03-23T10:41:09;12.10;95.10
2042;DHT22;1026;51.460;7.252;2023-03-23T10:43:38;12.10;95.40
2042;DHT22;1026;51.460;7.252;2023-03-23T10:48:39;12.10;95.30
2042;DHT22;1026;51.460;7.252;2023-03-23T10:51:10;12.10;95.30
2042;DHT22;1026;51.460;7.252;2023-03-23T10:53:43;12.00;95.30
2042;DHT22;1026;51.460;7.252;2023-03-23T10:56:25;12.10;95.40
2042;DHT22;1026;51.460;7.252;2023-03-23T10:58:53;12.10;95.60
2042;DHT22;1026;51.460;7.252;2023-03-23T11:01:32;12.10;95.30
2042;DHT22;1026;51.460;7.252;2023-03-23T11:04:00;12.10;95.30
2042;DHT22;1026;51.460;7.252;2023-03-23T11:06:30;12.10;95.30
2042;DHT22;1026;51.460;7.252;2023-03-23T11:09:08;12.00;95.30
2042;DHT22;1026;51.460;7.252;2023-03-23T11:11:39;12.10;95.30
2042;DHT22;1026;51.460;7.252;2023-03-23T11:16:57;12.00;95.30
2042;DHT22;1026;51.460;7.252;2023-03-23T11:19:24;12.10;95.30
2042;DHT22;1026;51.460;7.252;2023-03-23T11:21:52;12.10;95.50
2042;DHT22;1026;51.460;7.252;2023-03-23T11:24:22;12.00;95.50
2042;DHT22;1026;51.460;7.252;2023-03-23T11:26:50;11.90;95.30
2042;DHT22;1026;51.460;7.252;2023-03-23T11:29:32;12.00;95.60
2042;DHT22;1026;51.460;7.252;2023-03-23T11:34:32;12.00;95.40
2042;DHT22;1026;51.460;7.252;2023-03-23T11:37:03;12.00;95.40
2042;DHT22;1026;51.460;7.252;2023-03-23T11:39:32;12.00;95.40
2042;DHT22;1026;51.460;7.252;2023-03-23T11:42:12;12.10;95.40
2042;DHT22;1026;51.460;7.252;2023-03-23T11:44:43;12.10;95.90
2042;DHT22;1026;51.460;7.252;2023-03-23T11:47:28;12.10;95.40
2042;DHT22;1026;51.460;7.252;2023-03-23T11:52:43;12.00;95.50
2042;DHT22;1026;51.460;7.252;2023-03-23T11:55:27;12.00;95.40
2042;DHT22;1026;51.460;7.252;2023-03-23T11:57:56;12.10;95.40
2042;DHT22;1026;51.460;7.252;2023-03-23T12:00:25;12.00;95.30
2042;DHT22;1026;51.460;7.252;2023-03-23T12:03:13;12.10;95.40
2042;DHT22;1026;51.460;7.252;2023-03-23T12:13:56;12.00;95.40
2042;DHT22;1026;51.460;7.252;2023-03-23T12:16:48;12.00;95.40
2042;DHT22;1026;51.460;7.252;2023-03-23T12:19:39;12.10;95.40
2042;DHT22;1026;51.460;7.252;2023-03-23T12:35:52;12.10;95.40
2042;DHT22;1026;51.460;7.252;2023-03-23T12:38:44;12.10;95.50
2042;DHT22;1026;51.460;7.252;2023-03-23T12:41:18;12.10;95.40
2042;DHT22;1026;51.460;7.252;2023-03-23T12:43:59;12.10;95.40
2042;DHT22;1026;51.460;7.252;2023-03-23T12:46:32;12.10;95.40
2042;DHT22;1026;51.460;7.252;2023-03-23T12:51:59;12.10;95.40
2042;DHT22;1026;51.460;7.252;2023-03-23T12:57:21;12.10;95.60
2042;DHT22;1026;51.460;7.252;2023-03-23T13:02:24;12.10;95.70
2042;DHT22;1026;51.460;7.252;2023-03-23T13:04:58;12.10;95.60
2042;DHT22;1026;51.460;7.252;2023-03-23T13:07:35;12.10;95.70
2042;DHT22;1026;51.460;7.252;2023-03-23T13:10:07;12.10;95.60
2042;DHT22;1026;51.460;7.252;2023-03-23T13:12:38;12.10;95.80
2042;DHT22;1026;51.460;7.252;2023-03-23T13:20:37;12.10;95.70
2042;DHT22;1026;51.460;7.252;2023-03-23T13:23:19;12.00;95.90
2042;DHT22;1026;51.460;7.252;2023-03-23T13:26:03;12.10;95.80
2042;DHT22;1026;51.460;7.252;2023-03-23T13:28:44;12.10;95.90
2042;DHT22;1026;51.460;7.252;2023-03-23T13:31:14;12.00;95.90
2042;DHT22;1026;51.460;7.252;2023-03-23T13:33:46;12.20;95.90
2042;DHT22;1026;51.460;7.252;2023-03-23T13:36:15;12.20;95.90
2042;DHT22;1026;51.460;7.252;2023-03-23T13:38:47;12.20;95.70
2042;DHT22;1026;51.460;7.252;2023-03-23T13:41:17;12.20;95.80
2042;DHT22;1026;51.460;7.252;2023-03-23T13:43:44;12.20;95.70
2042;DHT22;1026;51.460;7.252;2023-03-23T13:46:23;12.20;95.80
2042;DHT22;1026;51.460;7.252;2023-03-23T13:51:36;12.20;95.50
2042;DHT22;1026;51.460;7.252;2023-03-23T13:56:57;12.20;96.00
2042;DHT22;1026;51.460;7.252;2023-03-23T13:59:46;12.20;95.50
2042;DHT22;1026;51.460;7.252;2023-03-23T14:05:24;12.20;95.50
2042;DHT22;1026;51.460;7.252;2023-03-23T14:07:56;12.20;95.80
2042;DHT22;1026;51.460;7.252;2023-03-23T14:10:31;12.20;95.50
2042;DHT22;1026;51.460;7.252;2023-03-23T14:12:59;12.30;95.70
2042;DHT22;1026;51.460;7.252;2023-03-23T14:15:29;12.30;95.50
2042;DHT22;1026;51.460;7.252;2023-03-23T14:17:55;12.30;95.80
2042;DHT22;1026;51.460;7.252;2023-03-23T14:20:27;12.20;95.80
2042;DHT22;1026;51.460;7.252;2023-03-23T14:22:56;12.30;95.70
2042;DHT22;1026;51.460;7.252;2023-03-23T14:25:25;12.30;95.70
2042;DHT22;1026;51.460;7.252;2023-03-23T14:27:52;12.30;95.70
2042;DHT22;1026;51.460;7.252;2023-03-23T14:30:21;12.30;95.50
2042;DHT22;1026;51.460;7.252;2023-03-23T14:32:48;12.30;95.60
2042;DHT22;1026;51.460;7.252;2023-03-23T14:38:03;12.30;95.30
2042;DHT22;1026;51.460;7.252;2023-03-23T14:40:30;12.40;95.40
2042;DHT22;1026;51.460;7.252;2023-03-23T14:42:57;12.40;95.40
2042;DHT22;1026;51.460;7.252;2023-03-23T14:45:24;12.30;95.50
2042;DHT22;1026;51.460;7.252;2023-03-23T14:47:53;12.30;95.40
2042;DHT22;1026;51.460;7.252;2023-03-23T14:50:27;12.40;95.50
2042;DHT22;1026;51.460;7.252;2023-03-23T14:53:00;12.40;95.50
2042;DHT22;1026;51.460;7.252;2023-03-23T14:55:27;12.40;95.40
2042;DHT22;1026;51.460;7.252;2023-03-23T14:58:04;12.40;95.50
2042;DHT22;1026;51.460;7.252;2023-03-23T15:00:39;12.30;95.40
2042;DHT22;1026;51.460;7.252;2023-03-23T15:03:10;12.40;95.50
2042;DHT22;1026;51.460;7.252;2023-03-23T15:05:42;12.30;95.40
2042;DHT22;1026;51.460;7.252;2023-03-23T15:08:19;12.40;95.60
2042;DHT22;1026;51.460;7.252;2023-03-23T15:10:55;12.40;95.60
2042;DHT22;1026;51.460;7.252;2023-03-23T15:13:22;12.40;95.70
2042;DHT22;1026;51.460;7.252;2023-03-23T15:15:48;12.30;95.60
2042;DHT22;1026;51.460;7.252;2023-03-23T15:18:31;12.40;95.60
2042;DHT22;1026;51.460;7.252;2023-03-23T15:20:57;12.40;95.60
2042;DHT22;1026;51.460;7.252;2023-03-23T15:23:28;12.40;95.60
2042;DHT22;1026;51.460;7.252;2023-03-23T15:25:56;12.40;95.70
2042;DHT22;1026;51.460;7.252;2023-03-23T15:28:30;12.50;95.60
2042;DHT22;1026;51.460;7.252;2023-03-23T15:31:04;12.50;95.60
2042;DHT22;1026;51.460;7.252;2023-03-23T15:33:39;12.50;95.70
2042;DHT22;1026;51.460;7.252;2023-03-23T15:36:15;12.50;95.60
2042;DHT22;1026;51.460;7.252;2023-03-23T15:38:44;12.50;95.90
2042;DHT22;1026;51.460;7.252;2023-03-23T15:41:26;12.50;95.40
2042;DHT22;1026;51.460;7.252;2023-03-23T15:43:54;12.50;95.70
2042;DHT22;1026;51.460;7.252;2023-03-23T15:46:25;12.50;95.40
2042;DHT22;1026;51.460;7.252;2023-03-23T15:49:10;12.50;95.60
2042;DHT22;1026;51.460;7.252;2023-03-23T15:51:36;12.50;95.60
2042;DHT22;1026;51.460;7.252;2023-03-23T15:54:02;12.50;95.60
2042;DHT22;1026;51.460;7.252;2023-03-23T15:56:51;12.50;95.60
2042;DHT22;1026;51.460;7.252;2023-03-23T15:59:17;12.50;95.40
2042;DHT22;1026;51.460;7.252;2023-03-23T16:01:43;12.50;95.50
2042;DHT22;1026;51.460;7.252;2023-03-23T16:04:12;12.50;95.50
2042;DHT22;1026;51.460;7.252;2023-03-23T16:06:39;12.50;95.50
2042;DHT22;1026;51.460;7.252;2023-03-23T16:09:06;12.50;95.50
2042;DHT22;1026;51.460;7.252;2023-03-23T16:11:35;12.50;95.50
2042;DHT22;1026;51.460;7.252;2023-03-23T16:14:01;12.50;95.50
2042;DHT22;1026;51.460;7.252;2023-03-23T16:16:30;12.50;95.60
2042;DHT22;1026;51.460;7.252;2023-03-23T16:18:57;12.50;95.50
2042;DHT22;1026;51.460;7.252;2023-03-23T16:21:23;12.50;95.50
2042;DHT22;1026;51.460;7.252;2023-03-23T16:23:48;12.50;95.50
2042;DHT22;1026;51.460;7.252;2023-03-23T16:26:14;12.50;95.90
2042;DHT22;1026;51.460;7.252;2023-03-23T16:28:41;12.60;95.50
2042;DHT22;1026;51.460;7.252;2023-03-23T16:31:07;12.50;95.40
2042;DHT22;1026;51.460;7.252;2023-03-23T16:33:33;12.60;95.80
2042;DHT22;1026;51.460;7.252;2023-03-23T16:35:59;12.50;95.40
2042;DHT22;1026;51.460;7.252;2023-03-23T16:38:25;12.50;95.50
2042;DHT22;1026;51.460;7.252;2023-03-23T16:40:50;12.60;95.70
2042;DHT22;1026;51.460;7.252;2023-03-23T16:43:16;12.60;95.50
2042;DHT22;1026;51.460;7.252;2023-03-23T16:45:44;12.50;95.50
2042;DHT22;1026;51.460;7.252;2023-03-23T16:48:12;12.50;95.40
2042;DHT22;1026;51.460;7.252;2023-03-23T16:50:38;12.50;95.50
2042;DHT22;1026;51.460;7.252;2023-03-23T16:53:05;12.50;95.40
2042;DHT22;1026;51.460;7.252;2023-03-23T16:55:33;12.50;95.50
2042;DHT22;1026;51.460;7.252;2023-03-23T16:57:59;12.50;95.50
2042;DHT22;1026;51.460;7.252;2023-03-23T17:00:25;12.50;95.60
2042;DHT22;1026;51.460;7.252;2023-03-23T17:02:52;12.50;95.60
2042;DHT22;1026;51.460;7.252;2023-03-23T17:05:19;12.50;95.50
2042;DHT22;1026;51.460;7.252;2023-03-23T17:07:46;12.50;95.50
2042;DHT22;1026;51.460;7.252;2023-03-23T17:10:12;12.50;95.80
2042;DHT22;1026;51.460;7.252;2023-03-23T17:12:39;12.50;95.90
2042;DHT22;1026;51.460;7.252;2023-03-23T17:15:07;12.50;95.50
2042;DHT22;1026;51.460;7.252;2023-03-23T17:17:33;12.40;95.50
2042;DHT22;1026;51.460;7.252;2023-03-23T17:19:59;12.50;95.70
2042;DHT22;1026;51.460;7.252;2023-03-23T17:22:25;12.50;95.90
2042;DHT22;1026;51.460;7.252;2023-03-23T17:24:51;12.50;95.50
2042;DHT22;1026;51.460;7.252;2023-03-23T17:27:18;12.50;95.70
2042;DHT22;1026;51.460;7.252;2023-03-23T17:29:45;12.50;95.70
2042;DHT22;1026;51.460;7.252;2023-03-23T17:32:11;12.50;95.60
2042;DHT22;1026;51.460;7.252;2023-03-23T17:34:37;12.50;95.70
2042;DHT22;1026;51.460;7.252;2023-03-23T17:37:03;12.50;95.50
2042;DHT22;1026;51.460;7.252;2023-03-23T17:39:30;12.50;95.70
2042;DHT22;1026;51.460;7.252;2023-03-23T17:41:57;12.50;95.60
2042;DHT22;1026;51.460;7.252;2023-03-23T17:44:23;12.50;95.70
2042;DHT22;1026;51.460;7.252;2023-03-23T17:46:49;12.50;95.60
2042;DHT22;1026;51.460;7.252;2023-03-23T17:49:15;12.50;95.70
2042;DHT22;1026;51.460;7.252;2023-03-23T17:51:41;12.50;95.60
2042;DHT22;1026;51.460;7.252;2023-03-23T17:54:07;12.50;95.80